Time;durP1;ratioP1;P1;durP2;ratioP2;P2;SDS_P1;SDS_P2;PMS_P1;PMS_P2;Temp;Humidity;BMP_temperature;BMP_pressure;BME280_temperature;BME280_humidity;BME280_pressure;Samples;Min_cycle;Max_cycle;Signal;HPM_P1;HPM_P2
2021/01/13 00:01:47;;;;;;;6.30;4.33;;;;;;;;;;5040375;28;20779;-71
2021/01/13 00:04:14;;;;;;;5.67;4.83;;;;;;;;;;5053000;28;20492;-71
2021/01/13 00:06:40;;;;;;;8.63;5.40;;;;;;;;;;5046041;28;20456;-70
2021/01/13 00:09:06;;;;;;;6.10;4.47;;;;;;;;;;5032960;28;20402;-71
2021/01/13 00:11:32;;;;;;;8.37;5.40;;;;;;;;;;5038009;28;20460;-70
2021/01/13 00:13:58;;;;;;;5.87;4.90;;;;;;;;;;5052912;28;20484;-71
2021/01/13 00:16:24;;;;;;;7.47;5.50;;;;;;;;;;5051980;28;20583;-70
2021/01/13 00:18:50;;;;;;;6.10;4.93;;;;;;;;;;5053010;28;20399;-71
2021/01/13 00:21:16;;;;;;;7.77;5.40;;;;;;;;;;5048093;28;20485;-70
2021/01/13 00:23:46;;;;;;;6.60;5.07;;;;;;;;;;5032730;28;20989;-71
2021/01/13 00:26:38;;;;;;;7.97;5.80;;;;;;;;;;5034960;28;20417;-70
2021/01/13 00:29:04;;;;;;;8.10;4.80;;;;;;;;;;5051023;28;20491;-71
2021/01/13 00:31:30;;;;;;;7.73;5.17;;;;;;;;;;5047524;28;20453;-71
2021/01/13 00:33:56;;;;;;;7.03;4.80;;;;;;;;;;5032676;28;20400;-72
2021/01/13 00:36:25;;;;;;;6.73;5.43;;;;;;;;;;5032657;28;20437;-72
2021/01/13 00:38:52;;;;;;;6.50;4.80;;;;;;;;;;5032672;28;20751;-72
2021/01/13 00:41:18;;;;;;;8.80;5.97;;;;;;;;;;5033982;28;20979;-73
2021/01/13 00:43:45;;;;;;;10.70;6.40;;;;;;;;;;5052626;28;20427;-71
2021/01/13 00:46:11;;;;;;;9.47;5.40;;;;;;;;;;5049796;28;20444;-71
2021/01/13 00:48:37;;;;;;;10.57;5.80;;;;;;;;;;5055143;28;20410;-71
2021/01/13 00:51:03;;;;;;;7.60;6.00;;;;;;;;;;5055194;28;20439;-70
2021/01/13 00:53:29;;;;;;;9.80;6.87;;;;;;;;;;5055703;28;20446;-71
2021/01/13 00:55:55;;;;;;;9.23;5.43;;;;;;;;;;5042663;28;20572;-70
2021/01/13 00:58:23;;;;;;;9.70;6.50;;;;;;;;;;5035963;28;20932;-71
2021/01/13 01:00:49;;;;;;;7.20;5.27;;;;;;;;;;5035706;28;20464;-71
2021/01/13 01:03:16;;;;;;;9.07;5.90;;;;;;;;;;5053040;28;20429;-71
2021/01/13 01:05:42;;;;;;;9.10;5.77;;;;;;;;;;5055883;28;20773;-71
2021/01/13 01:08:08;;;;;;;10.30;6.67;;;;;;;;;;5038414;28;20818;-71
2021/01/13 01:10:34;;;;;;;11.10;6.90;;;;;;;;;;5035713;28;20516;-71
2021/01/13 01:13:00;;;;;;;8.73;6.63;;;;;;;;;;5050568;28;20432;-70
2021/01/13 01:15:26;;;;;;;10.20;6.50;;;;;;;;;;5054502;28;20953;-70
2021/01/13 01:17:53;;;;;;;8.37;5.80;;;;;;;;;;5053882;28;20435;-71
2021/01/13 01:20:19;;;;;;;8.40;5.77;;;;;;;;;;5055421;28;20874;-71
2021/01/13 01:22:57;;;;;;;9.03;6.73;;;;;;;;;;5053449;28;20518;-71
2021/01/13 01:25:24;;;;;;;9.80;6.37;;;;;;;;;;5055713;28;20765;-71
2021/01/13 01:27:51;;;;;;;8.77;6.80;;;;;;;;;;5054540;28;20445;-71
2021/01/13 01:30:18;;;;;;;9.33;6.00;;;;;;;;;;5037149;28;20449;-71
2021/01/13 01:32:45;;;;;;;11.20;7.20;;;;;;;;;;5046971;28;20440;-71
2021/01/13 01:35:11;;;;;;;12.80;6.40;;;;;;;;;;5055604;28;20779;-71
2021/01/13 01:37:38;;;;;;;14.43;7.43;;;;;;;;;;5054292;28;20855;-71
2021/01/13 01:40:04;;;;;;;8.50;5.43;;;;;;;;;;5053619;28;20479;-71
2021/01/13 01:42:30;;;;;;;10.63;7.67;;;;;;;;;;5054592;28;20439;-71
2021/01/13 01:44:57;;;;;;;8.57;5.13;;;;;;;;;;5055356;28;20405;-71
2021/01/13 01:47:43;;;;;;;11.47;6.23;;;;;;;;;;5054281;28;20508;-71
2021/01/13 01:50:09;;;;;;;10.17;5.70;;;;;;;;;;5047873;28;20440;-71
2021/01/13 01:52:40;;;;;;;7.63;5.30;;;;;;;;;;5053827;28;20438;-70
2021/01/13 01:55:11;;;;;;;14.50;5.80;;;;;;;;;;5053778;28;20429;-71
2021/01/13 01:57:38;;;;;;;6.97;4.90;;;;;;;;;;5053109;28;20478;-70
2021/01/13 02:00:09;;;;;;;7.83;4.90;;;;;;;;;;5054576;28;20981;-71
2021/01/13 02:02:40;;;;;;;6.57;4.87;;;;;;;;;;5052307;28;20429;-70
2021/01/13 02:05:11;;;;;;;5.80;5.20;;;;;;;;;;5054752;28;20405;-71
2021/01/13 02:07:37;;;;;;;8.17;5.50;;;;;;;;;;5053955;28;20534;-70
2021/01/13 02:10:05;;;;;;;11.40;6.20;;;;;;;;;;5053264;28;20422;-71
2021/01/13 02:12:33;;;;;;;8.40;5.23;;;;;;;;;;5053630;28;20790;-71
2021/01/13 02:14:59;;;;;;;9.17;5.23;;;;;;;;;;5054744;28;20421;-71
2021/01/13 02:17:30;;;;;;;7.13;5.47;;;;;;;;;;5046718;28;20440;-70
2021/01/13 02:20:04;;;;;;;10.17;5.37;;;;;;;;;;5034736;28;20461;-71
2021/01/13 02:22:36;;;;;;;16.83;5.63;;;;;;;;;;5049766;28;20436;-70
2021/01/13 02:25:11;;;;;;;9.37;4.90;;;;;;;;;;5034396;28;20394;-71
2021/01/13 02:27:56;;;;;;;9.47;4.80;;;;;;;;;;5042627;28;20435;-70
2021/01/13 02:30:27;;;;;;;9.07;5.20;;;;;;;;;;5054419;28;20783;-71
2021/01/13 02:32:55;;;;;;;6.50;5.50;;;;;;;;;;5053293;28;20559;-70
2021/01/13 02:35:26;;;;;;;12.03;5.63;;;;;;;;;;5051188;28;20427;-70
2021/01/13 02:38:08;;;;;;;8.97;5.23;;;;;;;;;;5042980;28;20432;-70
2021/01/13 02:40:34;;;;;;;11.33;5.60;;;;;;;;;;5033736;28;20819;-71
2021/01/13 02:43:08;;;;;;;7.50;5.10;;;;;;;;;;5040199;28;20438;-70
2021/01/13 02:45:42;;;;;;;11.53;4.20;;;;;;;;;;5054224;28;20393;-71
2021/01/13 02:48:12;;;;;;;6.70;5.23;;;;;;;;;;5044749;28;20452;-70
2021/01/13 02:50:43;;;;;;;8.80;5.40;;;;;;;;;;5049232;28;20439;-71
2021/01/13 02:53:15;;;;;;;8.70;6.00;;;;;;;;;;5040677;28;20463;-71
2021/01/13 02:55:47;;;;;;;8.17;5.50;;;;;;;;;;5053762;28;20407;-71
2021/01/13 02:58:33;;;;;;;11.43;4.87;;;;;;;;;;5045729;28;20455;-70
2021/01/13 03:01:00;;;;;;;9.30;5.13;;;;;;;;;;5026483;28;20472;-71
2021/01/13 03:03:26;;;;;;;7.90;5.20;;;;;;;;;;5046347;28;20429;-71
2021/01/13 03:05:52;;;;;;;10.13;4.30;;;;;;;;;;5053832;28;20396;-71
2021/01/13 03:08:22;;;;;;;7.20;5.00;;;;;;;;;;5045238;28;20433;-71
2021/01/13 03:10:48;;;;;;;8.83;5.20;;;;;;;;;;5033601;28;20510;-73
2021/01/13 03:13:14;;;;;;;7.30;5.13;;;;;;;;;;5040640;28;20948;-72
2021/01/13 03:15:40;;;;;;;7.80;5.10;;;;;;;;;;5054298;28;20409;-73
2021/01/13 03:18:21;;;;;;;8.43;5.33;;;;;;;;;;5052894;28;20436;-72
2021/01/13 03:20:47;;;;;;;12.93;6.60;;;;;;;;;;5054007;28;20464;-72
2021/01/13 03:23:16;;;;;;;12.87;3.67;;;;;;;;;;5051672;28;20421;-73
2021/01/13 03:25:47;;;;;;;8.40;5.80;;;;;;;;;;5042230;28;20946;-72
2021/01/13 03:28:15;;;;;;;11.40;4.90;;;;;;;;;;5038109;28;20520;-72
2021/01/13 03:30:42;;;;;;;11.70;5.20;;;;;;;;;;5053103;28;20508;-72
2021/01/13 03:33:09;;;;;;;7.87;5.20;;;;;;;;;;5052619;28;20855;-72
2021/01/13 03:35:46;;;;;;;10.97;5.50;;;;;;;;;;5053279;28;20411;-72
2021/01/13 03:38:16;;;;;;;10.03;6.23;;;;;;;;;;5051045;28;20447;-72
2021/01/13 03:40:43;;;;;;;10.10;6.07;;;;;;;;;;5053247;28;20472;-73
2021/01/13 03:43:15;;;;;;;6.90;5.20;;;;;;;;;;5051936;28;20443;-72
2021/01/13 03:45:42;;;;;;;6.37;4.97;;;;;;;;;;5052235;28;20429;-72
2021/01/13 03:48:11;;;;;;;10.23;4.80;;;;;;;;;;5052153;28;20467;-72
2021/01/13 03:50:38;;;;;;;10.03;5.50;;;;;;;;;;5053007;28;20420;-72
2021/01/13 03:53:06;;;;;;;11.00;6.37;;;;;;;;;;5048399;28;20526;-72
2021/01/13 03:55:33;;;;;;;8.93;5.23;;;;;;;;;;5048381;28;20886;-72
2021/01/13 03:58:10;;;;;;;10.93;6.70;;;;;;;;;;5035235;28;20440;-72
2021/01/13 04:00:55;;;;;;;8.77;4.90;;;;;;;;;;5052799;28;20543;-72
2021/01/13 04:03:22;;;;;;;15.33;5.67;;;;;;;;;;5050995;28;20431;-72
2021/01/13 04:06:08;;;;;;;10.80;5.33;;;;;;;;;;5052783;28;20411;-72
2021/01/13 04:08:44;;;;;;;11.27;6.00;;;;;;;;;;5051694;28;20435;-72
2021/01/13 04:11:21;;;;;;;10.00;5.37;;;;;;;;;;5052838;28;20941;-72
2021/01/13 04:13:51;;;;;;;14.00;6.20;;;;;;;;;;5043976;28;20437;-72
2021/01/13 04:16:18;;;;;;;11.40;5.53;;;;;;;;;;5051502;28;20424;-72
2021/01/13 04:18:45;;;;;;;13.00;7.30;;;;;;;;;;5051641;28;20432;-72
2021/01/13 04:21:12;;;;;;;9.87;4.93;;;;;;;;;;5052612;28;20470;-72
2021/01/13 04:23:38;;;;;;;10.67;6.23;;;;;;;;;;5054642;28;20949;-72
2021/01/13 04:26:05;;;;;;;13.00;5.73;;;;;;;;;;5056563;28;20424;-72
2021/01/13 04:28:31;;;;;;;11.63;6.97;;;;;;;;;;5050031;28;20430;-72
2021/01/13 04:30:57;;;;;;;9.83;6.33;;;;;;;;;;5036454;28;20430;-72
2021/01/13 04:33:24;;;;;;;12.27;5.70;;;;;;;;;;5037948;28;20770;-72
2021/01/13 04:35:51;;;;;;;13.83;6.50;;;;;;;;;;5055091;28;20421;-72
2021/01/13 04:38:20;;;;;;;13.10;5.83;;;;;;;;;;5055190;28;20990;-72
2021/01/13 04:40:49;;;;;;;12.37;6.60;;;;;;;;;;5056102;28;20523;-72
2021/01/13 04:43:15;;;;;;;8.90;7.00;;;;;;;;;;5055416;28;20432;-72
2021/01/13 04:45:41;;;;;;;11.03;6.37;;;;;;;;;;5056590;28;20427;-72
2021/01/13 04:48:16;;;;;;;16.50;6.40;;;;;;;;;;5043318;28;20801;-72
2021/01/13 04:50:46;;;;;;;8.67;5.77;;;;;;;;;;5044374;28;20447;-73
2021/01/13 04:53:14;;;;;;;12.13;5.93;;;;;;;;;;5042780;28;20452;-72
2021/01/13 04:55:46;;;;;;;8.63;6.00;;;;;;;;;;5035967;28;20414;-72
2021/01/13 04:58:21;;;;;;;13.20;6.53;;;;;;;;;;5048230;28;20443;-74
2021/01/13 05:01:06;;;;;;;11.60;6.10;;;;;;;;;;5036012;28;20872;-72
2021/01/13 05:03:32;;;;;;;8.50;6.20;;;;;;;;;;5035994;28;20433;-72
2021/01/13 05:06:16;;;;;;;10.30;5.87;;;;;;;;;;5036169;28;20436;-72
2021/01/13 05:08:47;;;;;;;10.50;6.27;;;;;;;;;;5052117;28;20443;-72
2021/01/13 05:11:13;;;;;;;10.33;5.87;;;;;;;;;;5055653;28;20930;-72
2021/01/13 05:13:41;;;;;;;15.50;6.67;;;;;;;;;;5039180;28;20508;-72
2021/01/13 05:16:12;;;;;;;13.60;6.70;;;;;;;;;;5035708;28;20414;-72
2021/01/13 05:18:50;;;;;;;17.37;6.67;;;;;;;;;;5050638;28;20512;-72
2021/01/13 05:21:17;;;;;;;11.00;6.23;;;;;;;;;;5055771;28;20474;-72
2021/01/13 05:23:51;;;;;;;13.10;8.43;;;;;;;;;;5054587;28;20792;-72
2021/01/13 05:26:18;;;;;;;10.23;6.53;;;;;;;;;;5054540;28;20435;-72
2021/01/13 05:29:10;;;;;;;11.73;6.30;;;;;;;;;;5054397;28;20544;-72
2021/01/13 05:31:37;;;;;;;8.63;5.43;;;;;;;;;;5038565;28;20462;-72
2021/01/13 05:34:04;;;;;;;23.30;7.50;;;;;;;;;;5036027;28;20948;-72
2021/01/13 05:36:30;;;;;;;15.60;6.97;;;;;;;;;;5035489;28;20413;-72
2021/01/13 05:39:12;;;;;;;13.60;7.27;;;;;;;;;;5051960;28;20515;-72
2021/01/13 05:41:39;;;;;;;11.00;5.53;;;;;;;;;;5055647;28;21017;-72
2021/01/13 05:44:05;;;;;;;13.17;7.27;;;;;;;;;;5054258;28;20443;-72
2021/01/13 05:46:43;;;;;;;11.37;6.47;;;;;;;;;;5055495;28;20725;-72
2021/01/13 05:49:10;;;;;;;12.70;7.13;;;;;;;;;;5036116;28;20430;-72
2021/01/13 05:51:36;;;;;;;9.00;6.00;;;;;;;;;;5050536;28;20475;-72
2021/01/13 05:54:03;;;;;;;11.30;6.50;;;;;;;;;;5052200;28;20466;-72
2021/01/13 05:56:30;;;;;;;11.30;6.70;;;;;;;;;;5054919;28;20412;-72
2021/01/13 05:59:02;;;;;;;14.80;6.77;;;;;;;;;;5053957;28;20440;-72
2021/01/13 06:01:28;;;;;;;12.60;6.20;;;;;;;;;;5054905;28;20471;-72
2021/01/13 06:03:56;;;;;;;15.30;7.20;;;;;;;;;;5049015;28;20453;-72
2021/01/13 06:06:26;;;;;;;19.37;7.07;;;;;;;;;;5048566;28;20901;-71
2021/01/13 06:08:55;;;;;;;13.80;6.80;;;;;;;;;;5053681;28;20452;-71
2021/01/13 06:11:23;;;;;;;10.17;6.43;;;;;;;;;;5054674;28;20457;-71
2021/01/13 06:13:50;;;;;;;15.97;6.93;;;;;;;;;;5039979;28;20525;-71
2021/01/13 06:16:17;;;;;;;9.53;5.83;;;;;;;;;;5034767;28;20420;-71
2021/01/13 06:18:44;;;;;;;10.53;6.87;;;;;;;;;;5034477;28;20435;-71
2021/01/13 06:21:13;;;;;;;22.07;6.90;;;;;;;;;;5049889;28;20946;-71
2021/01/13 06:24:00;;;;;;;11.80;6.30;;;;;;;;;;5046498;28;20518;-71
2021/01/13 06:26:31;;;;;;;10.20;6.20;;;;;;;;;;5054866;28;20397;-71
2021/01/13 06:29:10;;;;;;;17.43;6.80;;;;;;;;;;5052981;28;20432;-71
2021/01/13 06:31:42;;;;;;;11.30;7.10;;;;;;;;;;5052333;28;20445;-66
2021/01/13 06:34:14;;;;;;;11.50;6.50;;;;;;;;;;5052215;28;20433;-67
2021/01/13 06:36:52;;;;;;;13.63;6.87;;;;;;;;;;5054199;28;20437;-67
2021/01/13 06:39:18;;;;;;;11.70;6.67;;;;;;;;;;5051366;28;20437;-66
2021/01/13 06:41:45;;;;;;;16.13;6.83;;;;;;;;;;5053857;28;20475;-64
2021/01/13 06:44:11;;;;;;;17.90;6.50;;;;;;;;;;5052269;28;20910;-66
2021/01/13 06:46:37;;;;;;;15.80;7.30;;;;;;;;;;5033322;28;20456;-66
2021/01/13 06:49:15;;;;;;;14.03;8.50;;;;;;;;;;5049485;28;20440;-67
2021/01/13 06:51:42;;;;;;;12.83;7.70;;;;;;;;;;5053561;28;20439;-63
2021/01/13 06:54:10;;;;;;;13.67;7.87;;;;;;;;;;5051713;28;20494;-67
2021/01/13 06:56:38;;;;;;;15.13;7.20;;;;;;;;;;5053528;28;20432;-67
2021/01/13 06:59:04;;;;;;;19.90;6.93;;;;;;;;;;5052330;28;20589;-66
2021/01/13 07:01:30;;;;;;;9.87;6.47;;;;;;;;;;5053547;28;20460;-67
2021/01/13 07:04:00;;;;;;;17.37;8.10;;;;;;;;;;5052320;28;20559;-66
2021/01/13 07:06:26;;;;;;;13.20;8.97;;;;;;;;;;5053375;28;20412;-66
2021/01/13 07:08:52;;;;;;;13.13;7.13;;;;;;;;;;5051720;28;20945;-67
2021/01/13 07:11:19;;;;;;;12.07;6.83;;;;;;;;;;5053309;28;20504;-68
2021/01/13 07:13:49;;;;;;;16.63;7.33;;;;;;;;;;5050653;28;20439;-68
2021/01/13 07:16:16;;;;;;;11.33;6.60;;;;;;;;;;5053245;28;20391;-66
2021/01/13 07:18:42;;;;;;;13.83;7.77;;;;;;;;;;5051802;28;20440;-67
2021/01/13 07:21:08;;;;;;;9.67;6.17;;;;;;;;;;5052306;28;20545;-68
2021/01/13 07:23:34;;;;;;;13.03;7.53;;;;;;;;;;5052167;28;20435;-67
2021/01/13 07:26:00;;;;;;;11.93;6.90;;;;;;;;;;5053265;28;20405;-68
2021/01/13 07:28:27;;;;;;;14.80;7.03;;;;;;;;;;5050226;28;20467;-68
2021/01/13 07:30:54;;;;;;;12.90;6.90;;;;;;;;;;5046775;28;20816;-67
2021/01/13 07:33:20;;;;;;;12.63;7.70;;;;;;;;;;5036653;28;20782;-68
2021/01/13 07:35:50;;;;;;;18.60;6.93;;;;;;;;;;5050232;28;20440;-68
2021/01/13 07:38:18;;;;;;;16.83;8.17;;;;;;;;;;5048078;28;20421;-71
2021/01/13 07:40:56;;;;;;;14.10;6.87;;;;;;;;;;5051915;28;20964;-68
2021/01/13 07:43:40;;;;;;;11.17;6.77;;;;;;;;;;5049177;28;20459;-68
2021/01/13 07:46:08;;;;;;;11.90;6.70;;;;;;;;;;5051235;28;20903;-68
2021/01/13 07:48:52;;;;;;;15.00;8.37;;;;;;;;;;5050612;28;20848;-67
2021/01/13 07:51:19;;;;;;;10.20;5.97;;;;;;;;;;5050132;28;20450;-68
2021/01/13 07:53:57;;;;;;;13.07;8.30;;;;;;;;;;5047216;28;20938;-68
2021/01/13 07:56:25;;;;;;;11.60;7.10;;;;;;;;;;5034540;28;20476;-69
2021/01/13 07:59:17;;;;;;;13.33;6.97;;;;;;;;;;5053280;28;20437;-68
2021/01/13 08:01:46;;;;;;;13.20;6.90;;;;;;;;;;5056511;28;20464;-69
2021/01/13 08:04:12;;;;;;;14.20;8.70;;;;;;;;;;5054545;28;20464;-68
2021/01/13 08:06:54;;;;;;;16.40;7.90;;;;;;;;;;5050548;28;20822;-68
2021/01/13 08:09:21;;;;;;;13.68;7.90;;;;;;;;;;5052879;28;20501;-70
2021/01/13 08:11:59;;;;;;;16.90;8.00;;;;;;;;;;5053167;28;20239;-68
2021/01/13 08:14:44;;;;;;;11.90;7.00;;;;;;;;;;5050771;28;20562;-70
2021/01/13 08:17:16;;;;;;;22.30;10.13;;;;;;;;;;5044289;28;20457;-71
2021/01/13 08:20:02;;;;;;;11.10;6.77;;;;;;;;;;5045698;28;20510;-72
2021/01/13 08:22:29;;;;;;;17.33;7.60;;;;;;;;;;5054656;28;20493;-69
2021/01/13 08:25:12;;;;;;;16.60;8.05;;;;;;;;;;5051172;28;20422;-69
2021/01/13 08:27:39;;;;;;;12.47;6.47;;;;;;;;;;5054541;28;20545;-69
2021/01/13 08:30:06;;;;;;;12.97;6.57;;;;;;;;;;5052724;28;20459;-69
2021/01/13 08:32:40;;;;;;;15.40;8.43;;;;;;;;;;5053162;28;20916;-67
2021/01/13 08:35:06;;;;;;;16.03;7.00;;;;;;;;;;5053739;28;20189;-70
2021/01/13 08:37:34;;;;;;;12.07;6.73;;;;;;;;;;5053435;28;20435;-73
2021/01/13 08:40:20;;;;;;;11.23;7.30;;;;;;;;;;5048409;28;20471;-73
2021/01/13 08:42:47;;;;;;;9.50;6.30;;;;;;;;;;5064065;28;20723;-73
2021/01/13 08:45:33;;;;;;;6.50;5.47;;;;;;;;;;5049135;28;20417;-72
2021/01/13 08:48:09;;;;;;;9.47;6.20;;;;;;;;;;5051871;28;20433;-72
2021/01/13 08:50:35;;;;;;;11.87;6.17;;;;;;;;;;5053602;28;20795;-73
2021/01/13 08:53:02;;;;;;;13.30;6.50;;;;;;;;;;5052083;28;20539;-72
2021/01/13 08:55:29;;;;;;;11.33;5.63;;;;;;;;;;5047451;28;20428;-73
2021/01/13 08:58:08;;;;;;;11.37;6.10;;;;;;;;;;5051098;28;20420;-73
2021/01/13 09:00:35;;;;;;;15.50;6.53;;;;;;;;;;5052510;28;20541;-73
2021/01/13 09:03:01;;;;;;;11.27;6.47;;;;;;;;;;5051284;28;20414;-73
2021/01/13 09:05:34;;;;;;;9.60;6.80;;;;;;;;;;5051065;28;21076;-72
2021/01/13 09:08:02;;;;;;;11.87;5.10;;;;;;;;;;5052312;28;20424;-73
2021/01/13 09:10:47;;;;;;;11.40;6.13;;;;;;;;;;5053099;28;20531;-73
2021/01/13 09:13:32;;;;;;;12.20;6.00;;;;;;;;;;5051234;28;20438;-73
2021/01/13 09:16:18;;;;;;;6.97;5.10;;;;;;;;;;5052059;28;20486;-73
2021/01/13 09:18:46;;;;;;;4.97;3.90;;;;;;;;;;5052275;28;20421;-72
2021/01/13 09:21:14;;;;;;;7.20;4.70;;;;;;;;;;5052048;28;20976;-73
2021/01/13 09:23:47;;;;;;;8.70;4.83;;;;;;;;;;5059509;28;20478;-73
2021/01/13 09:26:14;;;;;;;5.07;3.73;;;;;;;;;;5052162;28;20428;-72
2021/01/13 09:28:41;;;;;;;10.50;4.30;;;;;;;;;;5053265;28;20405;-73
2021/01/13 09:31:16;;;;;;;6.93;4.20;;;;;;;;;;5051545;28;20444;-73
2021/01/13 09:33:42;;;;;;;10.07;5.10;;;;;;;;;;5058046;28;20928;-73
2021/01/13 09:36:08;;;;;;;7.30;3.57;;;;;;;;;;5059302;28;20781;-73
2021/01/13 09:38:36;;;;;;;12.03;4.33;;;;;;;;;;5070572;28;20494;-73
2021/01/13 09:41:03;;;;;;;5.60;4.00;;;;;;;;;;5058967;28;20471;-73
2021/01/13 09:43:34;;;;;;;16.83;4.17;;;;;;;;;;5053170;28;20973;-72
2021/01/13 09:46:02;;;;;;;12.53;5.20;;;;;;;;;;5050211;28;20447;-73
2021/01/13 09:48:29;;;;;;;7.40;4.00;;;;;;;;;;5063617;28;20757;-72
2021/01/13 09:51:03;;;;;;;7.80;3.93;;;;;;;;;;5054881;28;21008;-73
2021/01/13 09:53:30;;;;;;;8.97;4.90;;;;;;;;;;5053303;28;20424;-73
2021/01/13 09:56:01;;;;;;;5.80;3.87;;;;;;;;;;5055661;28;20436;-73
2021/01/13 09:58:37;;;;;;;4.77;3.90;;;;;;;;;;5064781;28;20421;-73
2021/01/13 10:01:07;;;;;;;4.93;3.47;;;;;;;;;;5052130;28;20514;-73
2021/01/13 10:03:33;;;;;;;6.00;3.77;;;;;;;;;;5053770;28;20411;-72
2021/01/13 10:05:59;;;;;;;7.50;4.33;;;;;;;;;;5050352;28;20436;-72
2021/01/13 10:08:32;;;;;;;8.20;4.37;;;;;;;;;;5052448;28;20408;-72
2021/01/13 10:11:01;;;;;;;7.93;4.63;;;;;;;;;;5048675;28;20531;-72
2021/01/13 10:13:29;;;;;;;5.20;3.70;;;;;;;;;;5040998;28;20438;-73
2021/01/13 10:16:00;;;;;;;5.13;3.60;;;;;;;;;;5045350;28;20602;-73
2021/01/13 10:18:27;;;;;;;6.60;3.80;;;;;;;;;;5045635;28;20866;-73
2021/01/13 10:20:57;;;;;;;9.80;4.60;;;;;;;;;;5049033;28;20840;-72
2021/01/13 10:23:27;;;;;;;13.80;4.90;;;;;;;;;;5052267;28;20404;-73
2021/01/13 10:26:06;;;;;;;6.67;3.83;;;;;;;;;;5045814;28;20466;-73
2021/01/13 10:28:33;;;;;;;4.43;3.83;;;;;;;;;;5049064;28;20932;-73
2021/01/13 10:30:59;;;;;;;6.17;3.57;;;;;;;;;;5050018;28;20456;-73
2021/01/13 10:33:55;;;;;;;6.73;4.03;;;;;;;;;;5050380;28;20428;-72
2021/01/13 10:36:49;;;;;;;4.60;3.60;;;;;;;;;;5035711;28;20440;-73
2021/01/13 10:39:15;;;;;;;8.33;4.03;;;;;;;;;;5048711;28;20514;-73
2021/01/13 10:41:45;;;;;;;5.40;4.20;;;;;;;;;;5048191;28;20513;-72
2021/01/13 10:44:12;;;;;;;8.03;3.43;;;;;;;;;;5048499;28;20432;-72
2021/01/13 10:46:42;;;;;;;5.00;3.50;;;;;;;;;;5046958;28;20439;-73
2021/01/13 10:49:10;;;;;;;5.90;3.47;;;;;;;;;;5050898;28;20501;-73
2021/01/13 10:51:38;;;;;;;5.40;2.90;;;;;;;;;;5050222;28;20515;-72
2021/01/13 10:54:09;;;;;;;5.90;3.67;;;;;;;;;;5052573;28;20469;-73
2021/01/13 10:56:38;;;;;;;13.40;3.43;;;;;;;;;;5051313;28;20436;-73
2021/01/13 10:59:06;;;;;;;6.07;3.30;;;;;;;;;;5052377;28;20932;-73
2021/01/13 11:01:34;;;;;;;6.77;4.00;;;;;;;;;;5047609;28;20472;-72
2021/01/13 11:04:00;;;;;;;15.70;3.43;;;;;;;;;;5045774;28;20829;-74
2021/01/13 11:06:26;;;;;;;5.33;3.33;;;;;;;;;;5050175;28;20432;-73
2021/01/13 11:08:53;;;;;;;3.67;3.13;;;;;;;;;;5052479;28;20452;-72
2021/01/13 11:11:20;;;;;;;3.50;2.90;;;;;;;;;;5050657;28;20464;-73
2021/01/13 11:13:46;;;;;;;5.17;3.50;;;;;;;;;;5051575;28;20431;-73
2021/01/13 11:16:13;;;;;;;5.60;3.30;;;;;;;;;;5050539;28;20433;-73
2021/01/13 11:18:40;;;;;;;3.40;2.80;;;;;;;;;;5051875;28;20522;-72
2021/01/13 11:21:09;;;;;;;6.23;3.20;;;;;;;;;;5050644;28;20464;-73
2021/01/13 11:23:43;;;;;;;8.60;3.47;;;;;;;;;;5053531;28;20430;-73
2021/01/13 11:26:09;;;;;;;3.33;2.40;;;;;;;;;;5049494;28;20501;-73
2021/01/13 11:28:35;;;;;;;5.00;2.87;;;;;;;;;;5052282;28;20421;-73
2021/01/13 11:31:01;;;;;;;4.50;2.73;;;;;;;;;;5050914;28;20980;-72
2021/01/13 11:33:27;;;;;;;3.77;2.90;;;;;;;;;;5051522;28;20474;-72
2021/01/13 11:35:54;;;;;;;3.83;2.67;;;;;;;;;;5048880;28;20519;-72
2021/01/13 11:38:26;;;;;;;4.60;3.10;;;;;;;;;;5052145;28;20431;-73
2021/01/13 11:40:52;;;;;;;6.00;3.47;;;;;;;;;;5050739;28;21092;-72
2021/01/13 11:43:29;;;;;;;3.80;2.83;;;;;;;;;;5051133;28;20495;-72
2021/01/13 11:46:08;;;;;;;5.87;3.37;;;;;;;;;;5049285;28;20551;-73
2021/01/13 11:48:47;;;;;;;7.40;2.40;;;;;;;;;;5050350;28;20408;-72
2021/01/13 11:51:16;;;;;;;4.60;3.27;;;;;;;;;;5046219;28;20893;-72
2021/01/13 11:53:47;;;;;;;3.27;2.50;;;;;;;;;;5046180;28;20447;-72
2021/01/13 11:56:13;;;;;;;10.83;4.80;;;;;;;;;;5043398;28;20431;-73
2021/01/13 11:58:49;;;;;;;4.37;2.33;;;;;;;;;;5043490;28;20982;-73
2021/01/13 12:01:15;;;;;;;3.30;2.17;;;;;;;;;;5047651;28;20560;-74
2021/01/13 12:03:41;;;;;;;2.90;2.10;;;;;;;;;;5052304;28;20397;-73
2021/01/13 12:06:11;;;;;;;3.10;2.40;;;;;;;;;;5048603;28;20582;-74
2021/01/13 12:08:37;;;;;;;3.40;2.40;;;;;;;;;;5048237;28;20424;-73
2021/01/13 12:11:03;;;;;;;4.83;2.57;;;;;;;;;;5037696;28;20488;-73
2021/01/13 12:13:30;;;;;;;4.13;2.73;;;;;;;;;;5050459;28;20465;-74
2021/01/13 12:15:57;;;;;;;3.80;2.50;;;;;;;;;;5049194;28;20487;-72
2021/01/13 12:18:27;;;;;;;3.57;2.40;;;;;;;;;;5050542;28;20423;-73
2021/01/13 12:20:55;;;;;;;7.33;2.90;;;;;;;;;;5049832;28;20868;-73
2021/01/13 12:23:21;;;;;;;4.63;2.60;;;;;;;;;;5050684;28;20432;-74
2021/01/13 12:25:47;;;;;;;4.90;3.00;;;;;;;;;;5047179;28;20427;-73
2021/01/13 12:28:13;;;;;;;2.70;1.90;;;;;;;;;;5044715;28;20430;-74
2021/01/13 12:30:56;;;;;;;3.90;2.27;;;;;;;;;;5046060;28;20519;-73
2021/01/13 12:33:22;;;;;;;3.60;2.00;;;;;;;;;;5048834;28;20468;-72
2021/01/13 12:35:48;;;;;;;5.90;2.50;;;;;;;;;;5050140;28;20819;-73
2021/01/13 12:38:15;;;;;;;5.18;2.17;;;;;;;;;;5049840;28;20838;-73
2021/01/13 12:40:41;;;;;;;2.20;2.00;;;;;;;;;;5049082;28;20217;-73
2021/01/13 12:43:17;;;;;;;3.10;2.03;;;;;;;;;;5049612;28;20920;-73
2021/01/13 12:45:47;;;;;;;2.60;2.10;;;;;;;;;;5052186;28;20800;-72
2021/01/13 12:48:14;;;;;;;6.20;2.70;;;;;;;;;;5060332;28;20430;-73
2021/01/13 12:50:41;;;;;;;3.60;2.10;;;;;;;;;;5060547;28;20575;-72
2021/01/13 12:53:07;;;;;;;4.77;3.03;;;;;;;;;;5050021;28;20436;-71
2021/01/13 12:55:33;;;;;;;4.40;2.37;;;;;;;;;;5048156;28;20456;-73
2021/01/13 12:57:59;;;;;;;4.20;2.40;;;;;;;;;;5049763;28;20433;-72
2021/01/13 13:00:26;;;;;;;5.50;2.30;;;;;;;;;;5054328;28;20460;-72
2021/01/13 13:02:55;;;;;;;5.30;2.13;;;;;;;;;;5048373;28;20433;-75
2021/01/13 13:05:21;;;;;;;5.47;2.90;;;;;;;;;;5054349;28;20416;-73
2021/01/13 13:07:47;;;;;;;3.77;2.70;;;;;;;;;;5054410;28;20442;-72
2021/01/13 13:10:13;;;;;;;4.43;2.53;;;;;;;;;;5051869;28;20461;-72
2021/01/13 13:12:39;;;;;;;4.53;2.10;;;;;;;;;;5047036;28;20793;-72
2021/01/13 13:15:05;;;;;;;5.80;3.10;;;;;;;;;;5048512;28;20450;-71
2021/01/13 13:17:32;;;;;;;8.23;2.47;;;;;;;;;;5046790;28;20448;-72
2021/01/13 13:19:58;;;;;;;4.43;2.50;;;;;;;;;;5045154;28;20452;-72
2021/01/13 13:22:24;;;;;;;6.07;2.50;;;;;;;;;;5048646;28;20461;-73
2021/01/13 13:24:50;;;;;;;3.50;2.53;;;;;;;;;;5048959;28;20468;-73
2021/01/13 13:27:16;;;;;;;3.07;2.33;;;;;;;;;;5048916;28;21038;-73
2021/01/13 13:29:42;;;;;;;3.07;2.20;;;;;;;;;;5053444;28;20500;-72
2021/01/13 13:32:08;;;;;;;2.80;2.30;;;;;;;;;;5050445;28;20933;-72
2021/01/13 13:34:34;;;;;;;3.10;2.63;;;;;;;;;;5048639;28;20452;-73
2021/01/13 13:37:01;;;;;;;4.03;2.17;;;;;;;;;;5047408;28;20514;-72
2021/01/13 13:39:27;;;;;;;3.80;2.33;;;;;;;;;;5052918;28;20490;-73
2021/01/13 13:41:59;;;;;;;6.60;2.47;;;;;;;;;;5052391;28;20466;-72
2021/01/13 13:44:29;;;;;;;5.40;2.00;;;;;;;;;;5052421;28;20424;-72
2021/01/13 13:46:55;;;;;;;6.47;2.60;;;;;;;;;;5051456;28;20444;-72
2021/01/13 13:49:21;;;;;;;3.20;2.60;;;;;;;;;;5046449;28;20432;-72
2021/01/13 13:51:47;;;;;;;6.33;2.07;;;;;;;;;;5045113;28;20958;-72
2021/01/13 13:54:13;;;;;;;2.43;1.70;;;;;;;;;;5049556;28;20421;-72
2021/01/13 13:56:39;;;;;;;3.50;2.40;;;;;;;;;;5049281;28;20422;-72
2021/01/13 13:59:05;;;;;;;2.80;2.03;;;;;;;;;;5048598;28;20853;-73
2021/01/13 14:01:32;;;;;;;3.90;2.27;;;;;;;;;;5050796;28;20456;-73
2021/01/13 14:03:58;;;;;;;8.80;2.60;;;;;;;;;;5047946;28;20428;-73
2021/01/13 14:06:26;;;;;;;6.30;2.40;;;;;;;;;;5041104;28;20432;-73
2021/01/13 14:08:52;;;;;;;4.07;2.00;;;;;;;;;;5051295;28;20429;-72
2021/01/13 14:11:18;;;;;;;4.57;2.00;;;;;;;;;;5052692;28;20429;-72
2021/01/13 14:13:44;;;;;;;2.60;2.00;;;;;;;;;;5050596;28;20506;-72
2021/01/13 14:16:10;;;;;;;2.73;1.60;;;;;;;;;;5043048;28;20421;-71
2021/01/13 14:18:36;;;;;;;3.80;1.90;;;;;;;;;;5049664;28;20437;-72
2021/01/13 14:21:02;;;;;;;3.87;2.30;;;;;;;;;;5048705;28;20475;-72
2021/01/13 14:23:28;;;;;;;3.10;1.80;;;;;;;;;;5044362;28;20416;-72
2021/01/13 14:25:54;;;;;;;2.13;1.77;;;;;;;;;;5048588;28;21187;-72
2021/01/13 14:28:20;;;;;;;4.07;2.00;;;;;;;;;;5046689;28;20444;-72
2021/01/13 14:30:46;;;;;;;1.90;1.70;;;;;;;;;;5048854;28;20870;-71
2021/01/13 14:33:12;;;;;;;4.70;2.07;;;;;;;;;;5049263;28;20543;-71
2021/01/13 14:35:38;;;;;;;2.40;1.90;;;;;;;;;;5053015;28;20417;-71
2021/01/13 14:38:05;;;;;;;3.90;1.90;;;;;;;;;;5053679;28;20441;-72
2021/01/13 14:40:31;;;;;;;6.90;1.93;;;;;;;;;;5052753;28;20472;-72
2021/01/13 14:42:57;;;;;;;4.20;1.87;;;;;;;;;;5053116;28;20502;-72
2021/01/13 14:45:25;;;;;;;3.30;2.20;;;;;;;;;;5052389;28;20495;-72
2021/01/13 14:47:55;;;;;;;4.20;1.90;;;;;;;;;;5050649;28;20475;-71
2021/01/13 14:50:21;;;;;;;4.43;1.87;;;;;;;;;;5054023;28;20450;-72
2021/01/13 14:52:47;;;;;;;2.33;2.03;;;;;;;;;;5049908;28;20425;-72